sensor_id;sensor_type;location;lat;lon;timestamp;pressure;altitude;pressure_sealevel;temperature;humidity
25869;BME280;13688;53.154;18.136;2022-07-26T00:02:39;99994.34;;;23.80;42.01
25869;BME280;13688;53.154;18.136;2022-07-26T00:08:02;99999.83;;;23.80;41.99
25869;BME280;13688;53.154;18.136;2022-07-26T00:13:27;99990.14;;;23.78;41.88
25869;BME280;13688;53.154;18.136;2022-07-26T00:18:50;99979.63;;;23.75;41.91
25869;BME280;13688;53.154;18.136;2022-07-26T00:24:14;99982.56;;;23.73;41.92
25869;BME280;13688;53.154;18.136;2022-07-26T00:29:39;99983.63;;;23.72;41.88
25869;BME280;13688;53.154;18.136;2022-07-26T00:35:02;99968.00;;;23.73;41.82
25869;BME280;13688;53.154;18.136;2022-07-26T00:40:26;99977.30;;;23.72;41.83
25869;BME280;13688;53.154;18.136;2022-07-26T00:45:49;99965.94;;;23.68;41.81
25869;BME280;13688;53.154;18.136;2022-07-26T00:51:13;99964.91;;;23.62;41.87
25869;BME280;13688;53.154;18.136;2022-07-26T00:56:37;99988.16;;;23.60;41.95
25869;BME280;13688;53.154;18.136;2022-07-26T01:02:03;99986.48;;;23.59;42.05
25869;BME280;13688;53.154;18.136;2022-07-26T01:07:27;99989.42;;;23.57;42.14
25869;BME280;13688;53.154;18.136;2022-07-26T01:12:50;100003.37;;;23.56;42.21
25869;BME280;13688;53.154;18.136;2022-07-26T01:18:13;99992.39;;;23.56;42.30
25869;BME280;13688;53.154;18.136;2022-07-26T01:23:37;99994.91;;;23.57;42.32
25869;BME280;13688;53.154;18.136;2022-07-26T01:28:59;99979.52;;;23.56;42.31
25869;BME280;13688;53.154;18.136;2022-07-26T01:34:22;99978.03;;;23.54;42.40
25869;BME280;13688;53.154;18.136;2022-07-26T01:39:44;99972.77;;;23.52;42.47
25869;BME280;13688;53.154;18.136;2022-07-26T01:45:07;99969.41;;;23.50;42.47
25869;BME280;13688;53.154;18.136;2022-07-26T01:50:30;99966.89;;;23.49;42.45
25869;BME280;13688;53.154;18.136;2022-07-26T01:55:53;99978.32;;;23.46;42.41
25869;BME280;13688;53.154;18.136;2022-07-26T02:01:16;99968.83;;;23.41;42.46
25869;BME280;13688;53.154;18.136;2022-07-26T02:06:40;99957.47;;;23.38;42.57
25869;BME280;13688;53.154;18.136;2022-07-26T02:12:02;99952.86;;;23.32;42.60
25869;BME280;13688;53.154;18.136;2022-07-26T02:17:24;99947.41;;;23.25;42.61
25869;BME280;13688;53.154;18.136;2022-07-26T02:22:46;99963.92;;;23.19;42.73
25869;BME280;13688;53.154;18.136;2022-07-26T02:28:09;100013.31;;;23.12;42.80
25869;BME280;13688;53.154;18.136;2022-07-26T02:33:31;100004.49;;;23.03;42.92
25869;BME280;13688;53.154;18.136;2022-07-26T02:38:54;100003.67;;;22.96;43.11
25869;BME280;13688;53.154;18.136;2022-07-26T02:44:16;99995.05;;;22.93;43.42
25869;BME280;13688;53.154;18.136;2022-07-26T02:49:39;99990.42;;;22.87;43.69
25869;BME280;13688;53.154;18.136;2022-07-26T02:55:02;99982.22;;;22.80;43.97
25869;BME280;13688;53.154;18.136;2022-07-26T03:00:26;99990.45;;;22.73;44.27
25869;BME280;13688;53.154;18.136;2022-07-26T03:05:48;99969.60;;;22.66;44.60
25869;BME280;13688;53.154;18.136;2022-07-26T03:11:11;99984.59;;;22.63;45.02
25869;BME280;13688;53.154;18.136;2022-07-26T03:16:34;99981.02;;;22.56;45.27
25869;BME280;13688;53.154;18.136;2022-07-26T03:21:56;99988.63;;;22.47;45.54
25869;BME280;13688;53.154;18.136;2022-07-26T03:27:19;99980.01;;;22.37;45.76
25869;BME280;13688;53.154;18.136;2022-07-26T03:32:41;99999.41;;;22.29;45.97
25869;BME280;13688;53.154;18.136;2022-07-26T03:38:04;100021.34;;;22.22;46.24
25869;BME280;13688;53.154;18.136;2022-07-26T03:43:26;100022.39;;;22.15;46.46
25869;BME280;13688;53.154;18.136;2022-07-26T03:48:48;100018.59;;;22.09;46.60
25869;BME280;13688;53.154;18.136;2022-07-26T03:54:11;100024.05;;;22.03;46.62
25869;BME280;13688;53.154;18.136;2022-07-26T03:59:33;100033.94;;;21.97;46.51
25869;BME280;13688;53.154;18.136;2022-07-26T04:04:55;100017.95;;;21.94;46.50
25869;BME280;13688;53.154;18.136;2022-07-26T04:10:18;100013.30;;;21.88;46.71
25869;BME280;13688;53.154;18.136;2022-07-26T04:15:40;100012.25;;;21.76;47.59
25869;BME280;13688;53.154;18.136;2022-07-26T04:21:03;100037.72;;;21.76;48.39
25869;BME280;13688;53.154;18.136;2022-07-26T04:26:26;100050.97;;;21.79;48.88
25869;BME280;13688;53.154;18.136;2022-07-26T04:31:49;100062.37;;;21.83;49.42
25869;BME280;13688;53.154;18.136;2022-07-26T04:37:11;100065.50;;;21.80;49.92
25869;BME280;13688;53.154;18.136;2022-07-26T04:42:33;100089.92;;;21.75;50.51
25869;BME280;13688;53.154;18.136;2022-07-26T04:47:56;100114.31;;;21.69;51.08
25869;BME280;13688;53.154;18.136;2022-07-26T04:53:19;100123.75;;;21.60;51.79
25869;BME280;13688;53.154;18.136;2022-07-26T04:58:43;100127.68;;;21.38;53.18
25869;BME280;13688;53.154;18.136;2022-07-26T05:04:05;100093.70;;;21.19;54.17
25869;BME280;13688;53.154;18.136;2022-07-26T05:09:28;100147.70;;;21.10;55.02
25869;BME280;13688;53.154;18.136;2022-07-26T05:14:51;100184.44;;;21.01;56.53
25869;BME280;13688;53.154;18.136;2022-07-26T05:20:18;100186.09;;;20.96;57.45
25869;BME280;13688;53.154;18.136;2022-07-26T05:25:40;100208.19;;;21.01;58.31
25869;BME280;13688;53.154;18.136;2022-07-26T05:31:04;100195.63;;;21.06;59.10
25869;BME280;13688;53.154;18.136;2022-07-26T05:36:26;100185.74;;;21.05;59.71
25869;BME280;13688;53.154;18.136;2022-07-26T05:41:49;100177.75;;;21.04;60.52
25869;BME280;13688;53.154;18.136;2022-07-26T05:47:11;100179.02;;;21.08;61.57
25869;BME280;13688;53.154;18.136;2022-07-26T05:52:34;100206.00;;;21.18;62.36
25869;BME280;13688;53.154;18.136;2022-07-26T05:57:56;100201.89;;;21.28;63.26
25869;BME280;13688;53.154;18.136;2022-07-26T06:03:19;100202.98;;;21.34;63.26
25869;BME280;13688;53.154;18.136;2022-07-26T06:08:41;100200.20;;;21.27;63.54
25869;BME280;13688;53.154;18.136;2022-07-26T06:14:04;100211.47;;;21.18;63.76
25869;BME280;13688;53.154;18.136;2022-07-26T06:19:27;100208.89;;;21.09;63.92
25869;BME280;13688;53.154;18.136;2022-07-26T06:24:51;100215.11;;;20.97;64.35
25869;BME280;13688;53.154;18.136;2022-07-26T06:30:14;100219.04;;;20.88;65.33
25869;BME280;13688;53.154;18.136;2022-07-26T06:35:37;100224.30;;;20.89;65.66
25869;BME280;13688;53.154;18.136;2022-07-26T06:40:59;100227.44;;;20.86;65.97
25869;BME280;13688;53.154;18.136;2022-07-26T06:46:21;100232.20;;;20.77;66.17
25869;BME280;13688;53.154;18.136;2022-07-26T06:51:44;100250.81;;;20.67;66.45
25869;BME280;13688;53.154;18.136;2022-07-26T06:57:07;100236.58;;;20.50;65.97
25869;BME280;13688;53.154;18.136;2022-07-26T07:02:30;100231.20;;;20.21;65.63
25869;BME280;13688;53.154;18.136;2022-07-26T07:07:52;100265.33;;;19.95;66.35
25869;BME280;13688;53.154;18.136;2022-07-26T07:13:15;100251.08;;;19.79;66.77
25869;BME280;13688;53.154;18.136;2022-07-26T07:18:38;100257.19;;;19.66;67.11
25869;BME280;13688;53.154;18.136;2022-07-26T07:24:00;100265.36;;;19.51;67.43
25869;BME280;13688;53.154;18.136;2022-07-26T07:29:23;100262.42;;;19.38;67.64
25869;BME280;13688;53.154;18.136;2022-07-26T07:34:46;100288.77;;;19.31;67.51
25869;BME280;13688;53.154;18.136;2022-07-26T07:40:12;100313.73;;;19.20;67.90
25869;BME280;13688;53.154;18.136;2022-07-26T07:45:35;100326.81;;;19.24;68.07
25869;BME280;13688;53.154;18.136;2022-07-26T07:50:57;100333.70;;;19.35;68.21
25869;BME280;13688;53.154;18.136;2022-07-26T07:56:21;100326.55;;;19.49;68.04
25869;BME280;13688;53.154;18.136;2022-07-26T08:01:43;100329.98;;;19.65;68.03
25869;BME280;13688;53.154;18.136;2022-07-26T08:07:05;100318.70;;;19.83;67.43
25869;BME280;13688;53.154;18.136;2022-07-26T08:12:28;100313.54;;;19.88;67.33
25869;BME280;13688;53.154;18.136;2022-07-26T08:17:50;100319.06;;;19.95;67.52
25869;BME280;13688;53.154;18.136;2022-07-26T08:23:16;100323.48;;;20.11;67.48
25869;BME280;13688;53.154;18.136;2022-07-26T08:28:38;100321.44;;;20.34;67.03
25869;BME280;13688;53.154;18.136;2022-07-26T08:34:02;100322.73;;;20.53;66.66
25869;BME280;13688;53.154;18.136;2022-07-26T08:39:26;100319.77;;;20.69;65.96
25869;BME280;13688;53.154;18.136;2022-07-26T08:44:52;100331.41;;;20.78;65.64
25869;BME280;13688;53.154;18.136;2022-07-26T08:50:16;100335.06;;;20.85;65.11
25869;BME280;13688;53.154;18.136;2022-07-26T08:55:38;100339.73;;;20.91;65.05
25869;BME280;13688;53.154;18.136;2022-07-26T09:01:12;100345.34;;;21.04;65.08
25869;BME280;13688;53.154;18.136;2022-07-26T09:06:35;100356.81;;;21.21;64.67
25869;BME280;13688;53.154;18.136;2022-07-26T09:12:15;100349.99;;;21.32;64.28
25869;BME280;13688;53.154;18.136;2022-07-26T09:17:51;100373.48;;;21.48;63.53
25869;BME280;13688;53.154;18.136;2022-07-26T09:23:14;100366.39;;;21.53;62.75
25869;BME280;13688;53.154;18.136;2022-07-26T09:28:37;100367.92;;;21.62;61.98
25869;BME280;13688;53.154;18.136;2022-07-26T09:34:00;100361.48;;;21.77;61.61
25869;BME280;13688;53.154;18.136;2022-07-26T09:39:23;100372.55;;;21.96;61.12
25869;BME280;13688;53.154;18.136;2022-07-26T09:44:46;100369.95;;;22.16;60.35
25869;BME280;13688;53.154;18.136;2022-07-26T09:50:24;100371.67;;;22.24;59.22
25869;BME280;13688;53.154;18.136;2022-07-26T10:01:21;100381.53;;;22.18;58.29
25869;BME280;13688;53.154;18.136;2022-07-26T10:06:45;100387.69;;;22.27;57.88
25869;BME280;13688;53.154;18.136;2022-07-26T10:12:12;100387.73;;;22.34;57.34
25869;BME280;13688;53.154;18.136;2022-07-26T10:17:44;100395.16;;;22.46;56.93
25869;BME280;13688;53.154;18.136;2022-07-26T10:28:47;100384.79;;;22.90;55.89
25869;BME280;13688;53.154;18.136;2022-07-26T10:34:10;100389.89;;;23.19;55.14
25869;BME280;13688;53.154;18.136;2022-07-26T10:39:47;100395.39;;;23.39;54.07
25869;BME280;13688;53.154;18.136;2022-07-26T10:45:23;100400.89;;;23.46;53.03
25869;BME280;13688;53.154;18.136;2022-07-26T10:50:48;100402.78;;;23.38;52.15
25869;BME280;13688;53.154;18.136;2022-07-26T10:56:12;100401.30;;;23.42;51.72
25869;BME280;13688;53.154;18.136;2022-07-26T11:01:41;100412.07;;;23.57;51.33
25869;BME280;13688;53.154;18.136;2022-07-26T11:07:05;100403.01;;;23.77;50.79
25869;BME280;13688;53.154;18.136;2022-07-26T11:12:28;100408.47;;;24.03;49.86
25869;BME280;13688;53.154;18.136;2022-07-26T11:17:50;100392.11;;;24.21;48.85
25869;BME280;13688;53.154;18.136;2022-07-26T11:23:31;100406.27;;;24.32;48.64
25869;BME280;13688;53.154;18.136;2022-07-26T11:29:05;100396.53;;;24.42;48.19
25869;BME280;13688;53.154;18.136;2022-07-26T11:34:31;100399.92;;;24.38;47.90
25869;BME280;13688;53.154;18.136;2022-07-26T11:39:54;100408.17;;;24.31;47.59
25869;BME280;13688;53.154;18.136;2022-07-26T11:45:17;100408.59;;;24.21;47.45
25869;BME280;13688;53.154;18.136;2022-07-26T11:50:39;100411.56;;;24.20;47.28
25869;BME280;13688;53.154;18.136;2022-07-26T11:56:13;100390.66;;;24.32;46.68
25869;BME280;13688;53.154;18.136;2022-07-26T12:01:37;100399.92;;;24.38;46.22
25869;BME280;13688;53.154;18.136;2022-07-26T12:07:06;100410.91;;;24.38;45.62
25869;BME280;13688;53.154;18.136;2022-07-26T12:12:30;100420.88;;;24.32;45.79
25869;BME280;13688;53.154;18.136;2022-07-26T12:18:05;100400.00;;;24.05;46.03
25869;BME280;13688;53.154;18.136;2022-07-26T12:23:42;100390.71;;;23.92;46.57
25869;BME280;13688;53.154;18.136;2022-07-26T12:29:03;100397.48;;;24.03;46.79
25869;BME280;13688;53.154;18.136;2022-07-26T12:34:35;100388.17;;;24.04;46.59
25869;BME280;13688;53.154;18.136;2022-07-26T12:40:07;100393.67;;;23.91;46.42
25869;BME280;13688;53.154;18.136;2022-07-26T12:45:33;100392.87;;;23.77;46.44
25869;BME280;13688;53.154;18.136;2022-07-26T12:50:56;100395.80;;;23.82;46.45
25869;BME280;13688;53.154;18.136;2022-07-26T12:56:18;100398.73;;;24.01;46.63
25869;BME280;13688;53.154;18.136;2022-07-26T13:01:40;100388.94;;;24.31;46.47
25869;BME280;13688;53.154;18.136;2022-07-26T13:07:03;100381.41;;;24.65;45.98
25869;BME280;13688;53.154;18.136;2022-07-26T13:12:26;100388.22;;;24.94;45.01
25869;BME280;13688;53.154;18.136;2022-07-26T13:17:49;100382.00;;;25.11;44.29
25869;BME280;13688;53.154;18.136;2022-07-26T13:23:12;100396.98;;;25.16;43.32
25869;BME280;13688;53.154;18.136;2022-07-26T13:28:36;100384.98;;;25.10;42.67
25869;BME280;13688;53.154;18.136;2022-07-26T13:33:58;100381.45;;;24.90;42.74
25869;BME280;13688;53.154;18.136;2022-07-26T13:39:22;100389.27;;;24.61;42.61
25869;BME280;13688;53.154;18.136;2022-07-26T13:44:44;100381.08;;;24.41;43.32
25869;BME280;13688;53.154;18.136;2022-07-26T13:50:07;100394.19;;;24.46;43.99
25869;BME280;13688;53.154;18.136;2022-07-26T13:55:30;100375.20;;;24.76;44.14
25869;BME280;13688;53.154;18.136;2022-07-26T14:00:53;100388.73;;;25.16;43.95
25869;BME280;13688;53.154;18.136;2022-07-26T14:06:16;100380.14;;;25.55;43.51
25869;BME280;13688;53.154;18.136;2022-07-26T14:11:40;100385.16;;;25.90;43.03
25869;BME280;13688;53.154;18.136;2022-07-26T14:17:03;100380.80;;;26.01;42.63
25869;BME280;13688;53.154;18.136;2022-07-26T14:22:25;100379.36;;;26.16;42.57
25869;BME280;13688;53.154;18.136;2022-07-26T14:27:49;100382.02;;;26.60;41.75
25869;BME280;13688;53.154;18.136;2022-07-26T14:33:11;100362.52;;;26.73;40.57
25869;BME280;13688;53.154;18.136;2022-07-26T14:38:34;100372.91;;;26.59;39.67
25869;BME280;13688;53.154;18.136;2022-07-26T14:43:58;100376.27;;;26.24;39.38
25869;BME280;13688;53.154;18.136;2022-07-26T14:49:21;100385.99;;;25.90;39.49
25869;BME280;13688;53.154;18.136;2022-07-26T14:54:43;100376.86;;;25.72;39.96
25869;BME280;13688;53.154;18.136;2022-07-26T15:00:09;100377.24;;;25.50;40.00
25869;BME280;13688;53.154;18.136;2022-07-26T15:05:33;100378.74;;;25.46;40.44
25869;BME280;13688;53.154;18.136;2022-07-26T15:10:56;100378.97;;;25.45;40.72
25869;BME280;13688;53.154;18.136;2022-07-26T15:16:19;100375.33;;;25.51;40.86
25869;BME280;13688;53.154;18.136;2022-07-26T15:21:41;100373.03;;;25.73;41.00
25869;BME280;13688;53.154;18.136;2022-07-26T15:27:04;100366.65;;;25.97;40.62
25869;BME280;13688;53.154;18.136;2022-07-26T15:32:27;100370.76;;;26.24;40.18
25869;BME280;13688;53.154;18.136;2022-07-26T15:37:51;100372.54;;;26.19;39.77
25869;BME280;13688;53.154;18.136;2022-07-26T15:43:20;100374.98;;;26.09;39.80
25869;BME280;13688;53.154;18.136;2022-07-26T15:48:44;100370.79;;;26.06;40.05
25869;BME280;13688;53.154;18.136;2022-07-26T15:54:08;100373.84;;;25.98;39.59
25869;BME280;13688;53.154;18.136;2022-07-26T15:59:31;100368.19;;;25.68;39.98
25869;BME280;13688;53.154;18.136;2022-07-26T16:04:53;100366.15;;;25.57;40.27
25869;BME280;13688;53.154;18.136;2022-07-26T16:10:16;100364.77;;;25.73;40.62
25869;BME280;13688;53.154;18.136;2022-07-26T16:15:39;100374.42;;;26.73;39.75
25869;BME280;13688;53.154;18.136;2022-07-26T16:21:01;100375.81;;;27.36;39.00
25869;BME280;13688;53.154;18.136;2022-07-26T16:26:24;100380.58;;;28.86;37.04
25869;BME280;13688;53.154;18.136;2022-07-26T16:31:46;100376.55;;;30.28;34.08
25869;BME280;13688;53.154;18.136;2022-07-26T16:37:09;100371.39;;;30.37;32.81
25869;BME280;13688;53.154;18.136;2022-07-26T16:42:31;100388.30;;;30.35;32.44
25869;BME280;13688;53.154;18.136;2022-07-26T16:47:53;100381.17;;;30.88;31.94
25869;BME280;13688;53.154;18.136;2022-07-26T16:53:16;100413.28;;;31.60;30.39
25869;BME280;13688;53.154;18.136;2022-07-26T16:58:38;100400.10;;;31.77;28.98
25869;BME280;13688;53.154;18.136;2022-07-26T17:04:01;100391.66;;;31.35;29.29
25869;BME280;13688;53.154;18.136;2022-07-26T17:09:25;100399.54;;;30.67;29.32
25869;BME280;13688;53.154;18.136;2022-07-26T17:14:48;100416.84;;;29.30;30.34
25869;BME280;13688;53.154;18.136;2022-07-26T17:20:11;100421.66;;;27.90;31.75
25869;BME280;13688;53.154;18.136;2022-07-26T17:25:34;100424.56;;;26.82;33.24
25869;BME280;13688;53.154;18.136;2022-07-26T17:30:57;100420.91;;;25.96;34.45
25869;BME280;13688;53.154;18.136;2022-07-26T17:36:25;100443.89;;;25.27;35.74
25869;BME280;13688;53.154;18.136;2022-07-26T17:41:50;100454.78;;;24.71;37.56
25869;BME280;13688;53.154;18.136;2022-07-26T17:47:12;100488.30;;;24.02;39.91
25869;BME280;13688;53.154;18.136;2022-07-26T17:52:36;100472.22;;;23.39;42.20
25869;BME280;13688;53.154;18.136;2022-07-26T17:57:59;100481.34;;;22.85;43.49
25869;BME280;13688;53.154;18.136;2022-07-26T18:03:21;100479.45;;;22.44;44.71
25869;BME280;13688;53.154;18.136;2022-07-26T18:08:43;100487.65;;;22.10;45.75
25869;BME280;13688;53.154;18.136;2022-07-26T18:14:06;100489.77;;;21.86;46.87
25869;BME280;13688;53.154;18.136;2022-07-26T18:19:29;100495.08;;;21.66;47.80
25869;BME280;13688;53.154;18.136;2022-07-26T18:24:51;100509.34;;;21.40;48.67
25869;BME280;13688;53.154;18.136;2022-07-26T18:30:13;100511.95;;;21.12;49.67
25869;BME280;13688;53.154;18.136;2022-07-26T18:35:37;100519.75;;;20.94;50.69
25869;BME280;13688;53.154;18.136;2022-07-26T18:41:00;100521.64;;;20.79;51.11
25869;BME280;13688;53.154;18.136;2022-07-26T18:46:23;100534.46;;;20.64;51.61
25869;BME280;13688;53.154;18.136;2022-07-26T18:51:46;100520.44;;;20.52;52.16
25869;BME280;13688;53.154;18.136;2022-07-26T18:57:11;100520.52;;;20.44;52.64
25869;BME280;13688;53.154;18.136;2022-07-26T19:02:33;100540.38;;;20.38;53.09
25869;BME280;13688;53.154;18.136;2022-07-26T19:07:56;100540.47;;;20.29;53.49
25869;BME280;13688;53.154;18.136;2022-07-26T19:13:19;100550.42;;;20.22;53.94
25869;BME280;13688;53.154;18.136;2022-07-26T19:18:41;100557.57;;;20.09;54.29
25869;BME280;13688;53.154;18.136;2022-07-26T19:24:05;100566.02;;;19.99;54.97
25869;BME280;13688;53.154;18.136;2022-07-26T19:29:28;100561.28;;;19.93;55.15
25869;BME280;13688;53.154;18.136;2022-07-26T19:34:50;100558.08;;;19.89;55.56
25869;BME280;13688;53.154;18.136;2022-07-26T19:40:13;100567.84;;;19.84;55.96
25869;BME280;13688;53.154;18.136;2022-07-26T19:45:35;100567.55;;;19.79;56.17
25869;BME280;13688;53.154;18.136;2022-07-26T19:50:58;100579.00;;;19.74;56.59
25869;BME280;13688;53.154;18.136;2022-07-26T19:56:20;100584.33;;;19.67;56.96
25869;BME280;13688;53.154;18.136;2022-07-26T20:01:42;100593.91;;;19.63;57.13
25869;BME280;13688;53.154;18.136;2022-07-26T20:07:07;100589.51;;;19.54;57.33
25869;BME280;13688;53.154;18.136;2022-07-26T20:12:29;100604.22;;;19.45;57.35
25869;BME280;13688;53.154;18.136;2022-07-26T20:17:53;100614.14;;;19.38;57.48
25869;BME280;13688;53.154;18.136;2022-07-26T20:23:16;100624.23;;;19.29;57.31
25869;BME280;13688;53.154;18.136;2022-07-26T20:28:39;100630.09;;;19.18;56.67
25869;BME280;13688;53.154;18.136;2022-07-26T20:34:01;100624.00;;;19.08;56.42
25869;BME280;13688;53.154;18.136;2022-07-26T20:39:24;100641.08;;;19.02;55.95
25869;BME280;13688;53.154;18.136;2022-07-26T20:44:47;100626.96;;;18.90;55.47
25869;BME280;13688;53.154;18.136;2022-07-26T20:50:10;100651.86;;;18.79;55.35
25869;BME280;13688;53.154;18.136;2022-07-26T20:55:33;100646.60;;;18.69;55.13
25869;BME280;13688;53.154;18.136;2022-07-26T21:00:56;100648.63;;;18.59;54.88
25869;BME280;13688;53.154;18.136;2022-07-26T21:06:19;100639.31;;;18.45;54.73
25869;BME280;13688;53.154;18.136;2022-07-26T21:11:42;100635.07;;;18.35;54.90
25869;BME280;13688;53.154;18.136;2022-07-26T21:17:05;100651.23;;;18.28;55.00
25869;BME280;13688;53.154;18.136;2022-07-26T21:22:27;100656.49;;;18.21;55.06
25869;BME280;13688;53.154;18.136;2022-07-26T21:27:49;100667.72;;;18.10;55.30
25869;BME280;13688;53.154;18.136;2022-07-26T21:33:12;100676.55;;;18.04;55.49
25869;BME280;13688;53.154;18.136;2022-07-26T21:38:35;100685.41;;;17.98;55.68
25869;BME280;13688;53.154;18.136;2022-07-26T21:43:57;100687.77;;;17.93;55.86
25869;BME280;13688;53.154;18.136;2022-07-26T21:49:20;100689.30;;;17.87;56.14
25869;BME280;13688;53.154;18.136;2022-07-26T21:54:43;100687.74;;;17.85;56.17
25869;BME280;13688;53.154;18.136;2022-07-26T22:00:05;100701.86;;;17.80;56.38
25869;BME280;13688;53.154;18.136;2022-07-26T22:05:29;100695.06;;;17.76;56.52
25869;BME280;13688;53.154;18.136;2022-07-26T22:10:52;100713.39;;;17.74;56.62
25869;BME280;13688;53.154;18.136;2022-07-26T22:16:15;100711.32;;;17.68;56.77
25869;BME280;13688;53.154;18.136;2022-07-26T22:21:38;100719.28;;;17.61;56.83
25869;BME280;13688;53.154;18.136;2022-07-26T22:27:01;100724.48;;;17.46;56.93
25869;BME280;13688;53.154;18.136;2022-07-26T22:32:24;100729.17;;;17.28;57.12
25869;BME280;13688;53.154;18.136;2022-07-26T22:37:47;100726.20;;;17.13;57.49
25869;BME280;13688;53.154;18.136;2022-07-26T22:43:10;100725.13;;;17.06;57.77
25869;BME280;13688;53.154;18.136;2022-07-26T22:48:33;100723.36;;;16.89;58.04
25869;BME280;13688;53.154;18.136;2022-07-26T22:53:56;100729.68;;;16.72;58.43
25869;BME280;13688;53.154;18.136;2022-07-26T22:59:19;100728.05;;;16.61;58.83
25869;BME280;13688;53.154;18.136;2022-07-26T23:04:41;100730.36;;;16.56;59.19
25869;BME280;13688;53.154;18.136;2022-07-26T23:10:06;100728.98;;;16.52;59.45
25869;BME280;13688;53.154;18.136;2022-07-26T23:15:29;100731.47;;;16.45;59.49
25869;BME280;13688;53.154;18.136;2022-07-26T23:20:53;100725.20;;;16.27;59.69
25869;BME280;13688;53.154;18.136;2022-07-26T23:26:16;100719.09;;;16.07;59.89
25869;BME280;13688;53.154;18.136;2022-07-26T23:31:38;100718.37;;;15.87;60.20
25869;BME280;13688;53.154;18.136;2022-07-26T23:37:01;100708.52;;;15.68;60.53
25869;BME280;13688;53.154;18.136;2022-07-26T23:42:23;100720.13;;;15.51;61.01
25869;BME280;13688;53.154;18.136;2022-07-26T23:47:48;100726.92;;;15.37;61.48
25869;BME280;13688;53.154;18.136;2022-07-26T23:53:10;100718.14;;;15.26;61.93
25869;BME280;13688;53.154;18.136;2022-07-26T23:58:35;100721.16;;;15.13;62.32
